PWSweather.com
Personal Weather Stations
Station Observations
PENICUIKWS
PenicuikGB

PenicuikGB

Lat: 55.830932, Lon: -3.224533000000065

Elevation: 166

Station Type: Fine Offset

http://weather.penicuik.org

Latest ConditionsUpdated 8:30:02 PM GMT Monday, Sep 23, 2019
Currently Today's Max Today's Min Today's Average
Temperature 53.4°F11.9°C 70.3°F21.3°C 52.2°F11.2°C 59.0°F15.0°C
Dew Point 51.2°F10.7°C 64.8°F18.2°C 48.7°F9.3°C 53.7°F12.1°C
Winds Calm Calm 5.6 mph -9.0 kmh - - 1.4 mph 2.3 kmh
Wind Gusts -- 13.6 mph21.9 kmh - -
Humidity 92% 99% 51% 84%
Pressure 29.62 in1003.0 mb 29.69 in1005.4 mb 29.60 in1002.4 mb -
Precipitation - 0.01 in0.3 mm - -
Hour Temp Dew Point Humidity Winds Wind Gusts Pressure Precip Precip Rate Daily Precip Total
08:30 PM 53.4°F11.9°C 51.2°F10.7°C 92% Calm Calm -- 29.62 in1003.0 mb 0.00 in0.0 mm 0.00 in0.0 mm 0.01 in0.3 mm
08:15 PM 53.4°F11.9°C 51.2°F10.7°C 92% Calm Calm -- 29.62 in1003.0 mb 0.00 in0.0 mm 0.00 in0.0 mm 0.01 in0.3 mm
08:00 PM 53.4°F11.9°C 51.2°F10.7°C 92% Calm Calm -- 29.63 in1003.4 mb 0.00 in0.0 mm 0.00 in0.0 mm 0.01 in0.3 mm
07:45 PM 52.9°F11.6°C 50.3°F10.2°C 91% 0.2 mph NNW0.3 kmh NNW 1.6 mph2.6 kmh 29.63 in1003.4 mb 0.00 in0.0 mm 0.00 in0.0 mm 0.01 in0.3 mm
07:30 PM 52.5°F11.4°C 49.7°F9.8°C 90% Calm Calm -- 29.65 in1004.1 mb 0.00 in0.0 mm 0.00 in0.0 mm 0.01 in0.3 mm
07:15 PM 52.5°F11.4°C 49.4°F9.7°C 89% Calm Calm -- 29.65 in1004.1 mb 0.00 in0.0 mm 0.00 in0.0 mm 0.01 in0.3 mm
07:00 PM 52.7°F11.5°C 48.9°F9.4°C 87% Calm Calm -- 29.65 in1004.1 mb 0.00 in0.0 mm 0.00 in0.0 mm 0.01 in0.3 mm
06:45 PM 53.1°F11.7°C 49.0°F9.4°C 86% Calm Calm -- 29.65 in1004.1 mb 0.00 in0.0 mm 0.00 in0.0 mm 0.01 in0.3 mm
06:30 PM 53.8°F12.1°C 48.7°F9.3°C 83% Calm Calm -- 29.66 in1004.4 mb 0.00 in0.0 mm 0.00 in0.0 mm 0.01 in0.3 mm
06:15 PM 54.9°F12.7°C 49.5°F9.7°C 82% Calm Calm -- 29.65 in1004.1 mb 0.00 in0.0 mm 0.00 in0.0 mm 0.01 in0.3 mm
06:00 PM 58.1°F14.5°C 50.9°F10.5°C 77% 0.3 mph ENE0.5 kmh ENE 1.6 mph2.6 kmh 29.66 in1004.4 mb 0.00 in0.0 mm 0.00 in0.0 mm 0.01 in0.3 mm
05:45 PM 59.4°F15.2°C 50.3°F10.2°C 72% 1.3 mph E2.1 kmh E 3.1 mph5.0 kmh 29.65 in1004.1 mb 0.00 in0.0 mm 0.00 in0.0 mm 0.01 in0.3 mm
05:30 PM 60.8°F16.0°C 50.6°F10.3°C 69% 3.9 mph SE6.3 kmh SE 5.4 mph8.7 kmh 29.66 in1004.4 mb 0.00 in0.0 mm 0.00 in0.0 mm 0.01 in0.3 mm
05:15 PM 61.3°F16.3°C 51.9°F11.1°C 71% 2.8 mph SSE4.5 kmh SSE 4.5 mph7.2 kmh 29.66 in1004.4 mb 0.00 in0.0 mm 0.00 in0.0 mm 0.01 in0.3 mm
05:00 PM 60.8°F16.0°C 52.1°F11.2°C 73% 1.1 mph ENE1.8 kmh ENE 2.2 mph3.5 kmh 29.66 in1004.4 mb 0.00 in0.0 mm 0.00 in0.0 mm 0.01 in0.3 mm
04:45 PM 60.6°F15.9°C 51.9°F11.1°C 73% 0.4 mph WSW0.6 kmh WSW 1.6 mph2.6 kmh 29.67 in1004.7 mb 0.00 in0.0 mm 0.00 in0.0 mm 0.01 in0.3 mm
04:30 PM 60.8°F16.0°C 51.4°F10.8°C 71% 1.2 mph W1.9 kmh W 3.1 mph5.0 kmh 29.67 in1004.7 mb 0.00 in0.0 mm 0.00 in0.0 mm 0.01 in0.3 mm
04:15 PM 61.5°F16.4°C 51.3°F10.7°C 69% 2.3 mph N3.7 kmh N 4.5 mph7.2 kmh 29.67 in1004.7 mb 0.00 in0.0 mm 0.00 in0.0 mm 0.01 in0.3 mm
04:00 PM 61.9°F16.6°C 50.4°F10.2°C 66% 5.5 mph N8.9 kmh N 9.2 mph14.8 kmh 29.67 in1004.7 mb 0.00 in0.0 mm 0.00 in0.0 mm 0.01 in0.3 mm
03:45 PM 63.0°F17.2°C 51.0°F10.6°C 65% 1.9 mph WNW3.1 kmh WNW 7.6 mph12.2 kmh 29.67 in1004.7 mb 0.00 in0.0 mm 0.00 in0.0 mm 0.01 in0.3 mm
03:30 PM 63.0°F17.2°C 50.6°F10.3°C 64% 2.2 mph SSE3.5 kmh SSE 6.0 mph9.7 kmh 29.68 in1005.1 mb 0.00 in0.0 mm 0.00 in0.0 mm 0.01 in0.3 mm
03:15 PM 62.8°F17.1°C 49.6°F9.8°C 62% 4.3 mph SW6.9 kmh SW 6.9 mph11.1 kmh 29.68 in1005.1 mb 0.00 in0.0 mm 0.00 in0.0 mm 0.01 in0.3 mm
03:00 PM 63.5°F17.5°C 50.7°F10.4°C 63% 3.0 mph SW4.8 kmh SW 7.6 mph12.2 kmh 29.68 in1005.1 mb 0.00 in0.0 mm 0.00 in0.0 mm 0.01 in0.3 mm
02:45 PM 64.6°F18.1°C 49.5°F9.7°C 58% 4.5 mph SSW7.2 kmh SSW 6.9 mph11.1 kmh 29.68 in1005.1 mb 0.00 in0.0 mm 0.00 in0.0 mm 0.01 in0.3 mm
02:30 PM 66.4°F19.1°C 49.7°F9.8°C 55% 4.5 mph NE7.2 kmh NE 6.9 mph11.1 kmh 29.68 in1005.1 mb 0.00 in0.0 mm 0.00 in0.0 mm 0.01 in0.3 mm
02:15 PM 68.0°F20.0°C 49.2°F9.6°C 51% 4.4 mph SW7.1 kmh SW 9.2 mph14.8 kmh 29.68 in1005.1 mb 0.00 in0.0 mm 0.00 in0.0 mm 0.01 in0.3 mm
02:00 PM 68.4°F20.2°C 49.6°F9.8°C 51% 4.8 mph NNE7.7 kmh NNE 7.6 mph12.2 kmh 29.68 in1005.1 mb 0.00 in0.0 mm 0.00 in0.0 mm 0.01 in0.3 mm
01:45 PM 66.7°F19.3°C 50.1°F10.1°C 55% 4.7 mph NNW7.6 kmh NNW 9.2 mph14.8 kmh 29.68 in1005.1 mb 0.00 in0.0 mm 0.00 in0.0 mm 0.01 in0.3 mm
01:30 PM 64.8°F18.2°C 50.6°F10.3°C 60% 3.3 mph NW5.3 kmh NW 4.5 mph7.2 kmh 29.68 in1005.1 mb 0.00 in0.0 mm 0.00 in0.0 mm 0.01 in0.3 mm
01:15 PM 65.3°F18.5°C 51.1°F10.6°C 60% 2.6 mph NW4.2 kmh NW 3.8 mph6.1 kmh 29.68 in1005.1 mb 0.00 in0.0 mm 0.00 in0.0 mm 0.01 in0.3 mm
01:00 PM 65.1°F18.4°C 51.4°F10.8°C 61% 3.4 mph SW5.5 kmh SW 6.0 mph9.7 kmh 29.68 in1005.1 mb 0.00 in0.0 mm 0.00 in0.0 mm 0.01 in0.3 mm
12:45 PM 65.8°F18.8°C 51.1°F10.6°C 59% 3.9 mph E6.3 kmh E 7.6 mph12.2 kmh 29.68 in1005.1 mb 0.00 in0.0 mm 0.00 in0.0 mm 0.01 in0.3 mm
12:15 PM 67.3°F19.6°C 52.0°F11.1°C 58% 3.9 mph NW6.3 kmh NW 6.0 mph9.7 kmh 29.69 in1005.4 mb 0.00 in0.0 mm 0.00 in0.0 mm 0.01 in0.3 mm
12:00 PM 67.3°F19.6°C 54.3°F12.4°C 63% 3.9 mph NW6.3 kmh NW 8.3 mph13.4 kmh 29.68 in1005.1 mb 0.00 in0.0 mm 0.00 in0.0 mm 0.01 in0.3 mm
11:45 AM 63.7°F17.6°C 51.3°F10.7°C 64% 3.4 mph N5.5 kmh N 7.6 mph12.2 kmh 29.69 in1005.4 mb 0.00 in0.0 mm 0.00 in0.0 mm 0.01 in0.3 mm
11:30 AM 68.5°F20.3°C 54.1°F12.3°C 60% 5.6 mph ESE9.0 kmh ESE 13.6 mph21.9 kmh 29.68 in1005.1 mb 0.00 in0.0 mm 0.00 in0.0 mm 0.01 in0.3 mm
11:15 AM 64.2°F17.9°C 53.1°F11.7°C 67% 3.5 mph SSE5.6 kmh SSE 6.9 mph11.1 kmh 29.68 in1005.1 mb 0.00 in0.0 mm 0.00 in0.0 mm 0.01 in0.3 mm
11:00 AM 62.6°F17.0°C 53.5°F11.9°C 72% 2.6 mph S4.2 kmh S 6.0 mph9.7 kmh 29.68 in1005.1 mb 0.00 in0.0 mm 0.00 in0.0 mm 0.01 in0.3 mm
10:45 AM 62.1°F16.7°C 52.2°F11.2°C 70% 3.7 mph NNW6.0 kmh NNW 6.9 mph11.1 kmh 29.67 in1004.7 mb 0.00 in0.0 mm 0.00 in0.0 mm 0.01 in0.3 mm
10:30 AM 63.9°F17.7°C 53.5°F11.9°C 69% 3.4 mph WNW5.5 kmh WNW 6.9 mph11.1 kmh 29.67 in1004.7 mb 0.00 in0.0 mm 0.00 in0.0 mm 0.01 in0.3 mm
10:15 AM 70.3°F21.3°C 60.1°F15.6°C 70% 3.0 mph NNE4.8 kmh NNE 6.0 mph9.7 kmh 29.67 in1004.7 mb 0.00 in0.0 mm 0.00 in0.0 mm 0.01 in0.3 mm
10:00 AM 66.6°F19.2°C 64.8°F18.2°C 94% 2.6 mph N4.2 kmh N 5.4 mph8.7 kmh 29.68 in1005.1 mb 0.01 in0.3 mm 0.00 in0.0 mm 0.01 in0.3 mm
09:45 AM 61.5°F16.4°C 61.0°F16.1°C 98% 2.5 mph NW4.0 kmh NW 4.5 mph7.2 kmh 29.67 in1004.7 mb 0.01 in0.3 mm 0.00 in0.0 mm 0.01 in0.3 mm
09:30 AM 60.3°F15.7°C 60.0°F15.6°C 99% 1.2 mph N1.9 kmh N 3.1 mph5.0 kmh 29.67 in1004.7 mb 0.01 in0.3 mm 0.00 in0.0 mm 0.01 in0.3 mm
09:15 AM 59.4°F15.2°C 59.1°F15.1°C 99% 1.7 mph S2.7 kmh S 3.1 mph5.0 kmh 29.68 in1005.1 mb 0.01 in0.3 mm 0.04 in1.0 mm 0.01 in0.3 mm
09:00 AM 59.0°F15.0°C 58.7°F14.8°C 99% 0.6 mph WSW1.0 kmh WSW 1.6 mph2.6 kmh 29.68 in1005.1 mb 0.00 in0.0 mm 0.00 in0.0 mm 0.00 in0.0 mm
08:45 AM 59.0°F15.0°C 58.7°F14.8°C 99% 0.8 mph WSW1.3 kmh WSW 3.1 mph5.0 kmh 29.68 in1005.1 mb 0.00 in0.0 mm 0.00 in0.0 mm 0.00 in0.0 mm
08:30 AM 59.2°F15.1°C 58.9°F14.9°C 99% 0.3 mph SW0.5 kmh SW 1.6 mph2.6 kmh 29.68 in1005.1 mb 0.00 in0.0 mm 0.00 in0.0 mm 0.00 in0.0 mm
08:15 AM 59.4°F15.2°C 59.1°F15.1°C 99% 0.4 mph N0.6 kmh N 1.6 mph2.6 kmh 29.68 in1005.1 mb 0.00 in0.0 mm 0.00 in0.0 mm 0.00 in0.0 mm
08:01 AM 59.4°F15.2°C 59.1°F15.1°C 99% Calm Calm -- 29.67 in1004.7 mb 0.00 in0.0 mm 0.00 in0.0 mm 0.00 in0.0 mm
07:45 AM 58.1°F14.5°C 57.8°F14.3°C 99% 0.1 mph WSW0.2 kmh WSW 0.7 mph1.1 kmh 29.66 in1004.4 mb 0.00 in0.0 mm 0.00 in0.0 mm 0.00 in0.0 mm
07:30 AM 56.8°F13.8°C 56.6°F13.7°C 99% 1.1 mph ESE1.8 kmh ESE 3.1 mph5.0 kmh 29.65 in1004.1 mb 0.00 in0.0 mm 0.00 in0.0 mm 0.00 in0.0 mm
07:15 AM 56.1°F13.4°C 55.9°F13.3°C 99% Calm Calm -- 29.65 in1004.1 mb 0.00 in0.0 mm 0.00 in0.0 mm 0.00 in0.0 mm
07:00 AM 54.0°F12.2°C 53.1°F11.7°C 97% Calm Calm 0.7 mph1.1 kmh 29.65 in1004.1 mb 0.00 in0.0 mm 0.00 in0.0 mm 0.00 in0.0 mm
06:45 AM 52.9°F11.6°C 52.3°F11.3°C 98% Calm Calm -- 29.65 in1004.1 mb 0.00 in0.0 mm 0.00 in0.0 mm 0.00 in0.0 mm
06:30 AM 52.7°F11.5°C 52.2°F11.2°C 98% Calm Calm -- 29.65 in1004.1 mb 0.00 in0.0 mm 0.00 in0.0 mm 0.00 in0.0 mm
06:15 AM 52.3°F11.3°C 51.8°F11.0°C 98% Calm Calm -- 29.65 in1004.1 mb 0.00 in0.0 mm 0.00 in0.0 mm 0.00 in0.0 mm
06:00 AM 52.2°F11.2°C 51.6°F10.9°C 98% Calm Calm -- 29.64 in1003.7 mb 0.00 in0.0 mm 0.00 in0.0 mm 0.00 in0.0 mm
05:45 AM 52.3°F11.3°C 51.8°F11.0°C 98% 0.2 mph S0.3 kmh S 1.6 mph2.6 kmh 29.64 in1003.7 mb 0.00 in0.0 mm 0.00 in0.0 mm 0.00 in0.0 mm
05:30 AM 52.7°F11.5°C 52.2°F11.2°C 98% 0.2 mph S0.3 kmh S 0.7 mph1.1 kmh 29.63 in1003.4 mb 0.00 in0.0 mm 0.00 in0.0 mm 0.00 in0.0 mm
05:15 AM 53.1°F11.7°C 52.5°F11.4°C 98% Calm Calm -- 29.63 in1003.4 mb 0.00 in0.0 mm 0.00 in0.0 mm 0.00 in0.0 mm
05:00 AM 52.9°F11.6°C 52.3°F11.3°C 98% Calm Calm 0.7 mph1.1 kmh 29.62 in1003.0 mb 0.00 in0.0 mm 0.00 in0.0 mm 0.00 in0.0 mm
04:45 AM 52.9°F11.6°C 52.3°F11.3°C 98% 0.1 mph S0.2 kmh S 0.7 mph1.1 kmh 29.62 in1003.0 mb 0.00 in0.0 mm 0.00 in0.0 mm 0.00 in0.0 mm
04:30 AM 54.7°F12.6°C 53.9°F12.2°C 97% Calm Calm -- 29.62 in1003.0 mb 0.00 in0.0 mm 0.00 in0.0 mm 0.00 in0.0 mm
04:15 AM 55.4°F13.0°C 55.1°F12.8°C 99% Calm Calm -- 29.62 in1003.0 mb 0.00 in0.0 mm 0.00 in0.0 mm 0.00 in0.0 mm
04:00 AM 55.8°F13.2°C 55.5°F13.1°C 99% Calm Calm -- 29.62 in1003.0 mb 0.00 in0.0 mm 0.00 in0.0 mm 0.00 in0.0 mm
03:45 AM 55.6°F13.1°C 55.3°F12.9°C 99% Calm Calm -- 29.63 in1003.4 mb 0.00 in0.0 mm 0.00 in0.0 mm 0.00 in0.0 mm
03:30 AM 55.8°F13.2°C 55.5°F13.1°C 99% Calm Calm -- 29.62 in1003.0 mb 0.00 in0.0 mm 0.00 in0.0 mm 0.00 in0.0 mm
03:15 AM 56.1°F13.4°C 55.9°F13.3°C 99% Calm Calm -- 29.62 in1003.0 mb 0.00 in0.0 mm 0.00 in0.0 mm 0.00 in0.0 mm
03:00 AM 56.7°F13.7°C 56.4°F13.6°C 99% Calm Calm -- 29.62 in1003.0 mb 0.00 in0.0 mm 0.00 in0.0 mm 0.00 in0.0 mm
02:45 AM 56.8°F13.8°C 56.6°F13.7°C 99% Calm Calm -- 29.63 in1003.4 mb 0.00 in0.0 mm 0.00 in0.0 mm 0.00 in0.0 mm
02:30 AM 57.0°F13.9°C 56.8°F13.8°C 99% 0.3 mph N0.5 kmh N 1.6 mph2.6 kmh 29.63 in1003.4 mb 0.00 in0.0 mm 0.00 in0.0 mm 0.00 in0.0 mm
02:15 AM 57.0°F13.9°C 56.8°F13.8°C 99% 0.3 mph NNE0.5 kmh NNE 2.2 mph3.5 kmh 29.61 in1002.7 mb 0.00 in0.0 mm 0.00 in0.0 mm 0.00 in0.0 mm
02:00 AM 57.0°F13.9°C 56.8°F13.8°C 99% Calm Calm -- 29.61 in1002.7 mb 0.00 in0.0 mm 0.00 in0.0 mm 0.00 in0.0 mm
01:45 AM 57.2°F14.0°C 56.9°F13.8°C 99% Calm Calm -- 29.62 in1003.0 mb 0.00 in0.0 mm 0.00 in0.0 mm 0.00 in0.0 mm
01:30 AM 57.4°F14.1°C 57.1°F13.9°C 99% Calm Calm -- 29.62 in1003.0 mb 0.00 in0.0 mm 0.00 in0.0 mm 0.00 in0.0 mm
01:15 AM 57.6°F14.2°C 57.3°F14.1°C 99% Calm Calm -- 29.62 in1003.0 mb 0.00 in0.0 mm 0.00 in0.0 mm 0.00 in0.0 mm
01:00 AM 57.7°F14.3°C 57.5°F14.2°C 99% Calm Calm -- 29.62 in1003.0 mb 0.00 in0.0 mm 0.00 in0.0 mm 0.00 in0.0 mm
12:45 AM 57.9°F14.4°C 57.7°F14.3°C 99% Calm Calm -- 29.62 in1003.0 mb 0.00 in0.0 mm 0.00 in0.0 mm 0.00 in0.0 mm
12:30 AM 58.1°F14.5°C 57.8°F14.3°C 99% Calm Calm -- 29.62 in1003.0 mb 0.00 in0.0 mm 0.00 in0.0 mm 0.00 in0.0 mm
12:15 AM 58.3°F14.6°C 58.0°F14.4°C 99% Calm Calm -- 29.60 in1002.4 mb 0.00 in0.0 mm 0.00 in0.0 mm 0.00 in0.0 mm
12:00 AM 57.7°F14.3°C 57.5°F14.2°C 99% Calm Calm -- 29.61 in1002.7 mb 0.00 in0.0 mm 0.00 in0.0 mm 0.00 in0.0 mm